Flight Track Log - Related Links

Times and Time Zones

All times are in EDT time to prevent confusion due to time zone crossing. See the FLG3735 flight status page for this flight to view local times or setup timezone preferences in your user account.

Time Position Orientation Groundspeed Altitude Reporting Facility
EDT Latitude Longitude Course Direction KTS MPH feet Rate Location/Type
Tue 10:18:42 PM 42.2036 -83.3556 71° East 145 167 1,300  Level Cleveland Center
Tue 10:19:18 PM 42.1808 -83.3517 173° South 172 198 2,300 1,856 Climbing Cleveland Center
Tue 10:20:19 PM 42.1317 -83.3217 156° South 234 269 4,300 2,083 Climbing Cleveland Center
Tue 10:21:19 PM 42.1422 -83.2211 82° East 298 343 6,500 2,111 Climbing Cleveland Center
Tue 10:22:00 PM 42.3199 -82.7180 82° East  Level FlightAware Approximate
Tue 10:22:07 PM 42.1608 -83.1378 73° East 299 344 8,100  Level Cleveland Center
Tue 10:23:00 PM 42.3399 -82.5573 71° East  Level FlightAware Approximate
Tue 10:23:07 PM 42.1900 -83.0381 68° East 319 367 10,600  Level Cleveland Center
Tue 10:24:07 PM 42.2239 -82.9217 69° East 324 373 12,300 1,550 Climbing Cleveland Center
Tue 10:25:07 PM 42.2575 -82.7939 70° East 339 390 13,700 1,400 Climbing Cleveland Center
Tue 10:26:07 PM 42.2561 -82.6478 91° East 353 406 15,100 1,300 Climbing Cleveland Center
Tue 10:27:07 PM 42.2547 -82.4964 91° East 380 437 16,300 1,200 Climbing Cleveland Center
Tue 10:28:07 PM 42.2531 -82.3392 91° East 399 459 17,500 1,250 Climbing Cleveland Center
Tue 10:29:07 PM 42.2533 -82.1764 90° East 413 475 18,800 1,300 Climbing Cleveland Center
Tue 10:30:07 PM 42.2511 -82.0136 91° East 427 491 20,100 1,250 Climbing Cleveland Center
Tue 10:31:07 PM 42.2511 -81.8483 90° East 432 497 21,300 1,250 Climbing Cleveland Center
Tue 10:32:07 PM 42.2508 -81.6686 90° East 439 505 22,600 1,250 Climbing Cleveland Center
Tue 10:33:07 PM 42.2481 -81.5058 91° East 434 499 23,800 1,050 Climbing Cleveland Center
Tue 10:34:07 PM 42.2450 -81.3433 91° East 439 505 24,700 800 Climbing Cleveland Center
Tue 10:35:07 PM 42.2419 -81.1694 91° East 451 519 25,400 700 Climbing Cleveland Center
Tue 10:36:07 PM 42.2386 -80.9956 91° East 460 529 26,100 700 Climbing Cleveland Center
Tue 10:37:07 PM 42.2369 -80.8214 91° East 460 529 26,800 450 Climbing Cleveland Center
Tue 10:38:07 PM 42.2331 -80.6450 92° East 460 529 27,000 100 Climbing Cleveland Center
Tue 10:39:07 PM 42.2289 -80.4794 92° East 467 537 27,000  Level Cleveland Center
Tue 10:40:07 PM 42.2222 -80.2917 93° East 487 560 27,000  Level Cleveland Center
Tue 10:41:07 PM 42.2175 -80.1008 92° East 497 572 27,000  Level Cleveland Center
Tue 10:42:07 PM 42.2122 -79.9103 92° East 497 572 27,000  Level Cleveland Center
Tue 10:43:07 PM 42.2069 -79.7197 92° East 502 578 27,000  Level Cleveland Center
Tue 10:44:07 PM 42.2011 -79.5264 92° East 502 578 27,000  Level Cleveland Center
Tue 10:45:07 PM 42.1969 -79.3331 92° East 507 583 27,000  Level Cleveland Center
Tue 10:46:07 PM 42.1886 -79.1428 93° East 507 583 27,000  Level Cleveland Center
Tue 10:47:07 PM 42.2089 -78.9461 82° East 522 601 27,000  Level Cleveland Center
Tue 10:48:07 PM 42.2372 -78.7433 79° East 513 590 27,000  Level Cleveland Center
Tue 10:49:07 PM 42.2611 -78.5547 80° East 507 583 27,000  Level Cleveland Center
Tue 10:50:07 PM 42.2847 -78.3658 80° East 507 583 27,000  Level Cleveland Center
Tue 10:51:07 PM 42.3081 -78.1769 80° East 507 583 27,000  Level Cleveland Center
Tue 10:52:07 PM 42.3292 -78.0047 81° East 507 583 27,000  Level Cleveland Center
Tue 10:54:27 PM 42.3794 -77.5453 81° East 518 596 27,000  Level Boston Center
Tue 10:55:27 PM 42.4022 -77.3558 81° East 518 596 27,000  Level Boston Center
Tue 10:56:27 PM 42.4228 -77.1689 81° East 518 596 27,000  Level Boston Center
Tue 10:57:27 PM 42.4450 -76.9847 81° East 512 589 27,000  Level Boston Center
Tue 10:58:27 PM 42.4650 -76.7919 82° East 512 589 27,000  Level Boston Center
Tue 10:59:27 PM 42.4847 -76.6017 82° East 512 589 27,000  Level Boston Center
Tue 11:00:27 PM 42.5058 -76.4144 81° East 512 589 27,000  Level Boston Center
Tue 11:01:27 PM 42.5217 -76.2633 82° East 512 589 27,000 -500 Level Boston Center
Tue 11:02:27 PM 42.5431 -76.0503 82° East 512 589 26,000 -1,000 Descending Boston Center
Tue 11:03:27 PM 42.5614 -75.8625 82° East 512 589 25,000 -1,300 Descending Boston Center
Tue 11:04:27 PM 42.5797 -75.6689 83° East 512 589 23,400 -1,750 Descending Boston Center
Tue 11:05:27 PM 42.5992 -75.4922 81° East 505 581 21,500 -1,850 Descending Boston Center
Tue 11:06:27 PM 42.6139 -75.3264 83° East 468 539 19,700 -1,850 Descending Boston Center
Tue 11:07:27 PM 42.6283 -75.1633 83° East 443 510 17,800 -2,000 Descending Boston Center
Tue 11:08:27 PM 42.6428 -74.9889 84° East 432 497 15,700 -1,700 Descending Boston Center
Tue 11:09:27 PM 42.6558 -74.8625 82° East 426 490 14,400 -1,636 Descending Boston Center
Tue 11:10:06 PM 42.6669 -74.7303 83° East 409 471 13,000 -1,900 Descending Boston Center
Tue 11:10:27 PM 42.6703 -74.6767 85° East 416 479 12,500 -1,407 Descending Boston Center
Tue 11:11:27 PM 42.6706 -74.5411 90° East 401 461 11,100 -900 Descending Boston Center
Tue 11:12:27 PM 42.6528 -74.3794 98° East 396 456 10,700 -900 Descending Boston Center
Tue 11:13:27 PM 42.6400 -74.2719 99° East 353 406 9,300 -1,600 Descending Boston Center
Tue 11:14:27 PM 42.6231 -74.1444 100° East 315 362 7,500 -1,762 Descending Boston Center
Tue 11:15:33 PM 42.6083 -74.0228 99° East 303 349 5,600 -1,850 Descending Boston Center
Tue 11:16:27 PM 42.5950 -73.9264 101° East 299 344 3,800 -2,000 Descending Boston Center

Login

Don't have an account? Register now (free) for customized features, flight alerts, and more!